Flight Track Log - Related Links

Times and Time Zones

All times are in EDT time to prevent confusion due to time zone crossing. See the PN6210 flight status page for this flight to view local times or setup timezone preferences in your user account.

Time Position Orientation Groundspeed Altitude Reporting Facility
EDT Latitude Longitude Course Direction KTS MPH feet Rate Location/Type
Sat 12:11:00 AM 34.3465 112.4638 262° West  Level Estimated
Sat 12:12:00 AM 34.3314 112.3493 261° West  Level Estimated
Sat 12:13:00 AM 34.3162 112.2349 261° West  Level Estimated
Sat 12:14:00 AM 34.3008 112.1205 261° West  Level Estimated
Sat 12:15:00 AM 34.2854 112.0061 261° West  Level Estimated
Sat 12:16:00 AM 34.2699 111.8918 261° West  Level Estimated
Sat 12:17:00 AM 34.2542 111.7775 261° West  Level Estimated
Sat 12:18:00 AM 34.2384 111.6632 261° West  Level Estimated
Sat 12:19:00 AM 34.2226 111.5490 260° West  Level Estimated
Sat 12:20:00 AM 34.2066 111.4349 260° West  Level Estimated
Sat 12:21:00 AM 34.1905 111.3208 260° West  Level Estimated
Sat 12:22:00 AM 34.1743 111.2067 260° West  Level Estimated
Sat 12:23:00 AM 34.1580 111.0927 260° West  Level Estimated
Sat 12:24:00 AM 34.1416 110.9787 260° West  Level Estimated
Sat 12:25:00 AM 34.1251 110.8648 260° West  Level Estimated
Sat 12:26:00 AM 34.1085 110.7509 260° West  Level Estimated
Sat 12:27:00 AM 34.0918 110.6370 260° West  Level Estimated
Sat 12:28:00 AM 34.0750 110.5232 260° West  Level Estimated
Sat 12:29:00 AM 34.0581 110.4094 260° West  Level Estimated
Sat 12:30:00 AM 34.0411 110.2957 260° West  Level Estimated
Sat 12:31:00 AM 34.0239 110.1821 260° West  Level Estimated
Sat 12:32:00 AM 34.0067 110.0685 260° West  Level Estimated
Sat 12:33:00 AM 33.9894 109.9549 260° West  Level Estimated
Sat 12:34:00 AM 33.9719 109.8413 260° West  Level Estimated
Sat 12:35:00 AM 33.9544 109.7279 259° West  Level Estimated
Sat 12:36:00 AM 33.9367 109.6144 259° West  Level Estimated
Sat 12:37:00 AM 33.9190 109.5011 259° West  Level Estimated
Sat 12:38:00 AM 33.9011 109.3877 259° West  Level Estimated
Sat 12:39:00 AM 33.8831 109.2744 259° West  Level Estimated
Sat 12:40:00 AM 33.8651 109.1612 259° West  Level Estimated
Sat 12:41:00 AM 33.8469 109.0480 259° West  Level Estimated
Sat 12:42:00 AM 33.8286 108.9348 259° West  Level Estimated
Sat 12:43:00 AM 33.8102 108.8217 259° West  Level Estimated
Sat 12:44:00 AM 33.7918 108.7087 259° West  Level Estimated
Sat 12:45:00 AM 33.7732 108.5957 259° West  Level Estimated
Sat 12:46:00 AM 33.7545 108.4827 259° West  Level Estimated
Sat 12:47:00 AM 33.7357 108.3698 259° West  Level Estimated
Sat 12:48:00 AM 33.7168 108.2570 259° West  Level Estimated
Sat 12:49:00 AM 33.6978 108.1442 259° West  Level Estimated
Sat 12:50:00 AM 33.6787 108.0314 259° West  Level Estimated
Sat 12:51:00 AM 33.6595 107.9187 258° West  Level Estimated
Sat 12:52:00 AM 33.6402 107.8061 258° West  Level Estimated
Sat 12:53:00 AM 33.6208 107.6935 258° West  Level Estimated
Sat 12:54:00 AM 33.6013 107.5809 258° West  Level Estimated
Sat 12:55:00 AM 33.5817 107.4684 258° West  Level Estimated
Sat 12:56:00 AM 33.5620 107.3560 258° West  Level Estimated
Sat 12:57:00 AM 33.5422 107.2436 258° West  Level Estimated
Sat 12:58:00 AM 33.5223 107.1312 258° West  Level Estimated
Sat 12:59:00 AM 33.5023 107.0189 258° West  Level Estimated
Sat 01:00:00 AM 33.4822 106.9067 258° West  Level Estimated
Sat 01:01:00 AM 33.4619 106.7945 258° West  Level Estimated
Sat 01:02:00 AM 33.4416 106.6824 258° West  Level Estimated
Sat 01:03:00 AM 33.4212 106.5703 258° West  Level Estimated
Sat 01:04:00 AM 33.4007 106.4583 258° West  Level Estimated
Sat 01:05:00 AM 33.3801 106.3463 258° West  Level Estimated
Sat 01:06:00 AM 33.3593 106.2344 258° West  Level Estimated
Sat 01:07:00 AM 33.3385 106.1225 257° West  Level Estimated
Sat 01:08:00 AM 33.3176 106.0107 257° West  Level Estimated
Sat 01:09:00 AM 33.2966 105.8989 257° West  Level Estimated
Sat 01:10:00 AM 33.2755 105.7872 257° West  Level Estimated
Sat 01:11:00 AM 33.2542 105.6755 257° West  Level Estimated
Sat 01:12:00 AM 33.2329 105.5639 257° West  Level Estimated
Sat 01:13:00 AM 33.2115 105.4524 257° West  Level Estimated
Sat 01:14:00 AM 33.1900 105.3409 257° West  Level Estimated
Sat 01:15:00 AM 33.1684 105.2294 257° West  Level Estimated
Sat 01:16:00 AM 33.1466 105.1181 257° West  Level Estimated
Sat 01:17:00 AM 33.1248 105.0067 257° West  Level Estimated
Sat 01:18:00 AM 33.1029 104.8955 257° West  Level Estimated
Sat 01:19:00 AM 33.0809 104.7842 257° West  Level Estimated
Sat 01:20:00 AM 33.0588 104.6731 257° West  Level Estimated
Sat 01:21:00 AM 33.0366 104.5620 257° West  Level Estimated
Sat 01:22:00 AM 33.0143 104.4509 257° West  Level Estimated
Sat 01:23:00 AM 32.9919 104.3400 256° West  Level Estimated
Sat 01:24:00 AM 32.9694 104.2290 256° West  Level Estimated
Sat 01:25:00 AM 32.9468 104.1181 256° West  Level Estimated
Sat 01:26:00 AM 32.9241 104.0073 256° West  Level Estimated
Sat 01:27:00 AM 32.9013 103.8966 256° West  Level Estimated
Sat 01:28:00 AM 32.8784 103.7858 256° West  Level Estimated
Sat 01:29:00 AM 32.8570 103.6830 256° West  Level Estimated
Sat 01:30:00 AM 32.8570 103.6830 North  Level Estimated
Sat 01:31:00 AM 32.8570 103.6830 North  Level Estimated
Sat 01:32:00 AM 32.8570 103.6830 North  Level Estimated
Sat 01:33:00 AM 32.8570 103.6830 North  Level Estimated
Sat 01:34:00 AM 32.8570 103.6830 North  Level Estimated

Login

Don't have an account? Register now (free) for customized features, flight alerts, and more!